Latest Coastal Weather Observations for Stenhouse Bay

IDS60701

Issued at 9:51 pm CST Saturday 5 September 2015 (issued every 10 minutes, with the page automatically refreshed every 10 minutes)

About coastal observations | Map of coastal stations | Coastal observations for SA | Marine services | Other Formats
Station Details ID: 022049 Name: STENHOUSE BAY Lat: -35.28 Lon: 136.94 Height: 42.0 m
Data from the previous 72 hours. | See also: Recent months at Stenhouse Bay
Date/Time
CST
Temp

°C
Wind Pressure Rain
since 9am
mm
Weather Cloud Vis
km
Sea
Height
m
Swell
Dir
 
Speed
knots
Gust
knots
hPa Trend Height
m
Period
s
Dir
05/09:30pm 11.5 N 7 8 1019.0 - 0.0 - - - - - - -
05/09:00pm 11.9 NNE 7 8 1019.2 - 0.0 - - - - - - -
05/08:30pm 11.8 NNE 6 7 1019.3 - 0.0 - - - - - - -
05/08:00pm 12.0 N 7 8 1019.2 - 0.0 - - - - - - -
05/07:30pm 12.2 N 7 10 1019.2 - 0.0 - - - - - - -
05/07:00pm 12.7 N 6 8 1019.4 - 0.0 - - - - - - -
05/06:30pm 13.1 N 7 8 1019.0 - 0.0 - - - - - - -
05/06:00pm 13.8 N 6 9 1019.0 - 0.0 - - - - - - -
05/05:30pm 14.7 N 7 9 1018.8 - 0.0 - - - - - - -
05/05:00pm 15.4 N 8 11 1018.7 - 0.0 - - - - - - -
05/04:30pm 16.3 N 8 12 1018.6 - 0.0 - - - - - - -
05/04:00pm 17.0 N 11 14 1018.7 - 0.0 - - - - - - -
05/03:30pm 17.3 N 10 15 1018.8 - 0.0 - - - - - - -
05/03:00pm 17.7 N 9 13 1018.9 - 0.0 - - - - - - -
05/02:30pm 17.1 N 11 16 1019.5 - 0.0 - - - - - - -
05/02:00pm 17.5 N 11 16 1019.9 - 0.0 - - - - - - -
05/01:30pm 18.2 N 11 14 1020.2 - 0.0 - - - - - - -
05/01:00pm 17.6 N 10 16 1020.7 - 0.0 - - - - - - -
05/12:30pm 16.8 NNE 9 13 1021.1 - 0.0 - - - - - - -
05/12:00pm 16.4 NNE 9 14 1022.0 - 0.0 - - - - - - -
05/11:30am 15.8 N 10 13 1022.5 - 0.0 - - - - - - -
05/11:00am 14.3 N 9 13 1022.7 - 0.0 - - - - - - -
05/10:30am 14.0 N 8 11 1023.1 - 0.0 - - - - - - -
05/10:00am 12.6 NNE 8 11 1023.3 - 0.0 - - - - - - -
05/09:30am 11.7 NE 8 10 1023.4 - 0.0 - - - - - - -
05/09:00am 11.1 NE 6 9 1023.7 - 0.0 - - - - - - -
05/08:30am 10.8 NNE 5 6 1024.2 - 0.0 - - - - - - -
05/08:00am 9.5 NNE 4 6 1024.3 - 0.0 - - - - - - -
05/07:30am 7.8 NNE 4 6 1024.2 - 0.0 - - - - - - -
05/07:00am 6.5 NNE 6 7 1024.1 - 0.0 - - - - - - -
05/06:30am 6.0 N 6 8 1023.9 - 0.0 - - - - - - -
05/06:00am 5.2 N 6 7 1023.9 - 0.0 - - - - - - -
05/05:30am 5.5 NNE 6 8 1023.6 - 0.0 - - - - - - -
05/05:00am 6.0 NNE 6 8 1023.7 - 0.0 - - - - - - -
05/04:30am 5.6 NNE 5 7 1023.4 - 0.0 - - - - - - -
05/04:00am 5.8 NNE 5 7 1023.1 - 0.0 - - - - - - -
05/03:30am 6.4 NNE 5 6 1023.2 - 0.0 - - - - - - -
05/03:00am 6.5 N 4 5 1023.5 - 0.0 - - - - - - -
05/02:30am 6.6 N 4 5 1024.0 - 0.0 - - - - - - -
05/02:00am 6.4 N 4 5 1024.4 - 0.0 - - - - - - -
05/01:30am 6.4 NNW 4 5 1024.6 - 0.0 - - - - - - -
05/01:00am 6.6 NNW 3 4 1024.9 - 0.0 - - - - - - -
05/12:30am 6.9 NNW 3 4 1025.0 - 0.0 - - - - - - -
05/12:00am 7.5 NNW 3 5 1025.1 - 0.0 - - - - - - -
 
Date/Time
CST
Temp

°C
Wind Pressure Rain
since 9am
mm
Weather Cloud Vis
km
Sea
Height
m
Swell
Dir
 
Speed
knots
Gust
knots
hPa Trend Height
m
Period
s
Dir
04/11:30pm 7.8 NNW 4 5 1025.6 - 0.0 - - - - - - -
04/11:00pm 8.3 NNW 4 4 1025.8 - 0.0 - - - - - - -
04/10:30pm 9.1 NNW 3 3 1026.0 - 0.0 - - - - - - -
04/10:00pm 9.3 NNW 3 4 1026.4 - 0.0 - - - - - - -
04/09:30pm 9.2 NNW 2 2 1026.4 - 0.0 - - - - - - -
04/09:00pm 9.0 NNW 2 3 1026.5 - 0.0 - - - - - - -
04/08:30pm 9.3 NNW 2 3 1026.6 - 0.0 - - - - - - -
04/08:00pm 9.0 NNW 2 2 1026.2 - 0.0 - - - - - - -
04/07:30pm 8.7 NNW 3 4 1026.1 - 0.0 - - - - - - -
04/07:00pm 9.1 NNW 3 3 1025.9 - 0.0 - - - - - - -
04/06:30pm 9.8 N 2 2 1025.8 - 0.0 - - - - - - -
04/06:00pm 11.4 CALM 0 0 1025.7 - 0.0 - - - - - - -
04/05:30pm 12.2 ESE 1 3 1025.7 - 0.0 - - - - - - -
04/05:00pm 12.8 SE 2 4 1025.8 - 0.0 - - - - - - -
04/04:30pm 12.3 SSE 3 3 1025.8 - 0.0 - - - - - - -
04/04:00pm 12.5 SSE 3 4 1026.0 - 0.0 - - - - - - -
04/03:30pm 12.5 SSE 4 5 1026.0 - 0.0 - - - - - - -
04/03:00pm 12.6 SSE 4 5 1026.1 - 0.0 - - - - - - -
04/02:30pm 12.7 SSE 4 6 1026.2 - 0.0 - - - - - - -
04/02:00pm 12.7 SSE 4 6 1026.3 - 0.0 - - - - - - -
04/01:30pm 13.3 SSE 5 7 1026.5 - 0.0 - - - - - - -
04/01:00pm 12.9 SSE 5 7 1026.7 - 0.0 - - - - - - -
04/12:30pm 13.2 SSE 5 7 1027.2 - 0.0 - - - - - - -
04/12:00pm 12.9 SSE 6 8 1027.7 - 0.0 - - - - - - -
04/11:30am 12.6 SSE 6 7 1027.9 - 0.0 - - - - - - -
04/11:00am 12.7 SE 5 7 1027.9 - 0.0 - - - - - - -
04/10:30am 12.7 E 4 7 1028.0 - 0.0 - - - - - - -
04/10:00am 12.6 E 3 5 1028.0 - 0.0 - - - - - - -
04/09:30am 12.0 ESE 1 2 1028.3 - 0.0 - - - - - - -
04/09:00am 11.9 E 3 6 1028.5 - 0.0 - - - - - - -
04/08:30am 11.5 SE 5 7 1028.4 - 0.0 - - - - - - -
04/08:00am 11.1 S 5 8 1028.4 - 0.0 - - - - - - -
04/07:30am 10.9 SE 4 8 1028.2 - 0.0 - - - - - - -
04/07:00am 10.8 SSE 4 7 1028.1 - 0.0 - - - - - - -
04/06:30am 10.6 S 4 6 1027.8 - 0.0 - - - - - - -
04/06:00am 10.6 SE 4 6 1027.7 - 0.0 - - - - - - -
04/05:30am 10.9 SSE 6 9 1027.2 - 0.0 - - - - - - -
04/05:00am 10.7 ESE 5 7 1026.9 - 0.0 - - - - - - -
04/04:30am 10.7 SE 5 7 1026.5 - 0.0 - - - - - - -
04/04:00am 10.9 SE 9 11 1026.3 - 0.0 - - - - - - -
04/03:30am 10.9 SSE 7 11 1026.4 - 0.0 - - - - - - -
04/03:00am 11.0 SSE 7 11 1026.7 - 0.0 - - - - - - -
04/02:30am 11.1 SSE 7 9 1026.8 - 0.0 - - - - - - -
04/02:00am 11.0 SSE 10 13 1027.0 - 0.0 - - - - - - -
04/01:30am 11.1 SSE 5 7 1027.3 - 0.0 - - - - - - -
04/01:00am 11.2 S 8 11 1027.3 - 0.0 - - - - - - -
04/12:30am 11.2 S 7 9 1027.4 - 0.0 - - - - - - -
04/12:00am 11.2 SSE 8 12 1027.4 - 0.0 - - - - - - -
 
Date/Time
CST
Temp

°C
Wind Pressure Rain
since 9am
mm
Weather Cloud Vis
km
Sea
Height
m
Swell
Dir
 
Speed
knots
Gust
knots
hPa Trend Height
m
Period
s
Dir
03/11:30pm 11.3 SSE 6 9 1027.6 - 0.0 - - - - - - -
03/11:00pm 11.3 SSE 7 9 1027.6 - 0.0 - - - - - - -
03/10:30pm 11.3 SSE 8 12 1027.6 - 0.0 - - - - - - -
03/10:00pm 11.3 SSE 6 10 1027.6 - 0.0 - - - - - - -
03/09:30pm 11.4 SSE 6 9 1027.3 - 0.0 - - - - - - -
03/09:00pm 11.3 SSE 6 8 1027.1 - 0.0 - - - - - - -
03/08:30pm 11.4 SSE 9 13 1026.7 - 0.0 - - - - - - -
03/08:00pm 11.7 SSE 11 16 1026.5 - 0.0 - - - - - - -
03/07:30pm 12.0 SSE 12 15 1026.4 - 0.0 - - - - - - -
03/07:00pm 12.0 SSE 12 14 1026.1 - 0.0 - - - - - - -
03/06:30pm 12.0 SSE 14 17 1025.7 - 0.0 - - - - - - -
03/06:00pm 12.0 S 13 16 1025.2 - 0.0 - - - - - - -
03/05:30pm 12.4 SSE 11 15 1025.0 - 0.0 - - - - - - -
03/05:00pm 12.9 S 11 14 1024.7 - 0.0 - - - - - - -
03/04:30pm 13.0 SSE 10 12 1024.5 - 0.0 - - - - - - -
03/04:00pm 13.3 S 8 9 1024.3 - 0.0 - - - - - - -
03/03:30pm 13.3 S 14 17 1023.9 - 0.0 - - - - - - -
03/03:00pm 13.9 S 8 11 1023.7 - 0.0 - - - - - - -
03/02:30pm 13.5 S 10 13 1023.3 - 0.0 - - - - - - -
03/02:00pm 14.0 S 11 14 1023.2 - 0.0 - - - - - - -
03/01:30pm 13.9 S 11 14 1023.2 - 0.0 - - - - - - -
03/01:00pm 13.4 S 13 16 1023.3 - 0.0 - - - - - - -
03/12:30pm 13.9 S 10 12 1023.6 - 0.0 - - - - - - -
03/12:00pm 14.1 S 14 16 1023.6 - 0.0 - - - - - - -
03/11:30am 13.7 SSW 12 16 1023.6 - 0.0 - - - - - - -
03/11:00am 13.5 S 13 17 1023.4 - 0.0 - - - - - - -
03/10:30am 12.9 SSE 11 15 1023.2 - 0.0 - - - - - - -
03/10:00am 13.5 S 14 22 1022.7 - 0.0 - - - - - - -
03/09:30am 13.1 S 14 17 1022.5 - 0.0 - - - - - - -
03/09:00am 13.0 S 16 21 1022.0 - 13.6 - - - - - - -
03/08:30am 12.7 S 16 19 1021.4 - 13.6 - - - - - - -
03/08:00am 12.5 SSW 16 22 1020.5 - 13.6 - - - - - - -
03/07:30am 12.5 S 20 24 1019.7 - 13.6 - - - - - - -
03/07:00am 12.4 S 17 21 1019.1 - 13.6 - - - - - - -
03/06:30am 12.4 S 19 26 1018.1 - 13.6 - - - - - - -
03/06:00am 12.4 S 14 20 1017.8 - 13.6 - - - - - - -
03/05:30am 12.8 S 21 27 1017.1 - 13.6 - - - - - - -
03/05:00am 12.8 SSW 19 26 1016.3 - 13.6 - - - - - - -
03/04:30am 12.7 S 18 25 1015.9 - 13.6 - - - - - - -
03/04:00am 12.6 SSW 21 29 1015.2 - 13.6 - - - - - - -
03/03:30am 12.8 SSW 19 26 1014.9 - 13.6 - - - - - - -
03/03:13am 12.7 SSW 17 25 1014.5 - 13.6 - - - - - - -
03/03:00am 12.5 SSW 9 15 1014.5 - 13.6 Rain - - - - - -
03/02:30am 12.3 SSW 14 19 1014.4 - 13.4 - - - - - - -
03/02:00am 12.8 SSW 13 18 1014.0 - 13.4 - - - - - - -
03/01:30am 12.5 SSW 13 17 1013.8 - 13.4 - - - - - - -
03/01:00am 12.5 SSW 15 19 1013.5 - 13.4 - - - - - - -
03/12:30am 12.5 SSW 12 16 1013.3 - 13.4 - - - - - - -
03/12:00am 11.9 SSW 11 16 1013.0 - 13.4 - - - - - - -
 
Date/Time
CST
Temp

°C
Wind Pressure Rain
since 9am
mm
Weather Cloud Vis
km
Sea
Height
m
Swell
Dir
 
Speed
knots
Gust
knots
hPa Trend Height
m
Period
s
Dir
02/11:30pm 12.3 SSW 16 21 1012.6 - 13.4 - - - - - - -
02/11:00pm 12.3 SSW 16 21 1012.3 - 13.4 - - - - - - -
02/10:30pm 12.3 SSW 16 22 1011.6 - 13.4 - - - - - - -
02/10:00pm 12.4 SSW 17 22 1011.0 - 13.4 - - - - - - -

Other Formats:

Comma delimited format used in spreadsheet applications
http://www.bom.gov.au/fwo/IDS60701/IDS60701.95806.axf

JavaScript Object Notation format (JSON) in row-major order
http://www.bom.gov.au/fwo/IDS60701/IDS60701.95806.json